createdAt,value
2018-12-29T00:02:41.497Z,27.13
2018-12-29T00:07:43.591Z,26.27
2018-12-29T00:12:45.653Z,25.77
2018-12-29T00:17:48.024Z,25.50
2018-12-29T00:22:50.281Z,28.52
2018-12-29T00:27:52.436Z,30.75
2018-12-29T00:32:54.594Z,27.55
2018-12-29T00:37:56.553Z,28.85
2018-12-29T00:42:58.529Z,28.45
2018-12-29T00:48:00.546Z,26.35
2018-12-29T00:53:02.537Z,25.97
2018-12-29T00:58:04.593Z,27.37
2018-12-29T01:03:06.594Z,26.62
2018-12-29T01:08:08.572Z,25.57
2018-12-29T01:13:10.701Z,26.23
2018-12-29T01:18:12.740Z,27.48
2018-12-29T01:23:14.797Z,25.50
2018-12-29T01:28:16.813Z,25.32
2018-12-29T01:33:18.844Z,24.65
2018-12-29T01:38:20.947Z,23.60
2018-12-29T01:43:23.393Z,24.43
2018-12-29T01:48:25.422Z,26.07
2018-12-29T01:53:27.476Z,25.35
2018-12-29T01:58:29.677Z,23.80
2018-12-29T02:03:31.801Z,27.22
2018-12-29T02:08:33.877Z,26.37
2018-12-29T02:13:35.969Z,25.90
2018-12-29T02:18:37.963Z,26.12
2018-12-29T02:23:40.102Z,24.00
2018-12-29T02:28:42.114Z,24.95
2018-12-29T02:33:44.379Z,24.10
2018-12-29T02:38:46.423Z,25.15
2018-12-29T02:43:48.379Z,25.25
2018-12-29T02:48:50.387Z,24.98
2018-12-29T02:53:52.406Z,24.37
2018-12-29T02:58:54.432Z,22.95
2018-12-29T03:03:56.437Z,23.40
2018-12-29T03:08:58.474Z,24.18
2018-12-29T03:14:00.567Z,24.40
2018-12-29T03:19:02.884Z,21.60
2018-12-29T03:24:04.940Z,25.43
2018-12-29T03:29:07.008Z,23.73
2018-12-29T03:34:08.989Z,23.50
2018-12-29T03:39:11.041Z,23.32
2018-12-29T03:44:13.045Z,23.85
2018-12-29T03:49:15.415Z,24.05
2018-12-29T03:54:17.476Z,23.32
2018-12-29T03:59:19.919Z,24.35
2018-12-29T04:04:22.077Z,23.73
2018-12-29T04:09:34.694Z,22.80
2018-12-29T04:14:36.694Z,21.95
2018-12-29T04:19:38.690Z,21.93
2018-12-29T04:24:40.770Z,22.80
2018-12-29T04:29:42.793Z,22.58
2018-12-29T04:34:44.806Z,22.52
2018-12-29T04:39:46.819Z,23.80
2018-12-29T04:44:48.834Z,23.57
2018-12-29T04:49:50.789Z,23.35
2018-12-29T04:54:52.802Z,24.50
2018-12-29T04:59:54.929Z,23.70
2018-12-29T05:04:56.934Z,25.23
2018-12-29T05:09:58.946Z,25.55
2018-12-29T05:15:00.955Z,26.62
2018-12-29T05:20:04.306Z,25.45
2018-12-29T05:25:06.383Z,27.60
2018-12-29T05:30:08.413Z,25.50
2018-12-29T05:35:10.484Z,27.07
2018-12-29T05:40:12.485Z,25.23
2018-12-29T05:45:14.539Z,27.30
2018-12-29T05:50:16.652Z,28.23
2018-12-29T05:55:18.701Z,29.27
2018-12-29T06:00:20.761Z,27.58
2018-12-29T06:05:23.180Z,26.30
2018-12-29T06:10:25.376Z,25.17
2018-12-29T06:15:27.374Z,25.90
2018-12-29T06:20:29.414Z,25.90
2018-12-29T06:25:31.443Z,27.02
2018-12-29T06:30:33.490Z,24.47
2018-12-29T06:35:35.505Z,26.05
2018-12-29T06:40:37.509Z,24.43
2018-12-29T06:45:39.549Z,22.95
2018-12-29T06:50:41.600Z,26.15
2018-12-29T06:55:43.579Z,23.83
2018-12-29T07:00:45.592Z,24.60
2018-12-29T07:05:47.569Z,23.32
2018-12-29T07:10:49.862Z,24.02
2018-12-29T07:15:51.916Z,24.55
2018-12-29T07:20:54.000Z,24.27
2018-12-29T07:25:56.070Z,24.40
2018-12-29T07:30:58.229Z,24.27
2018-12-29T07:36:00.284Z,24.82
2018-12-29T07:41:04.548Z,23.60
2018-12-29T07:46:06.581Z,25.00
2018-12-29T07:51:08.642Z,22.10
2018-12-29T07:56:11.009Z,26.07
2018-12-29T08:01:13.080Z,25.88
2018-12-29T08:06:15.595Z,24.25
2018-12-29T08:11:17.644Z,24.65
2018-12-29T08:16:20.176Z,27.27
2018-12-29T08:21:22.223Z,27.20
2018-12-29T08:26:24.290Z,24.95
2018-12-29T08:31:26.400Z,25.35
2018-12-29T08:36:28.558Z,23.70
2018-12-29T08:41:30.586Z,25.12
2018-12-29T08:46:32.553Z,24.98
2018-12-29T08:51:34.568Z,24.18
2018-12-29T08:56:37.252Z,24.10
2018-12-29T09:01:39.418Z,26.23
2018-12-29T09:06:41.709Z,23.87
2018-12-29T09:11:43.837Z,24.20
2018-12-29T09:16:46.108Z,25.02
2018-12-29T09:21:48.376Z,26.05
2018-12-29T09:26:50.427Z,23.52
2018-12-29T09:31:52.754Z,25.57
2018-12-29T09:36:54.741Z,27.73
2018-12-29T09:41:57.027Z,26.50
2018-12-29T09:46:59.184Z,27.10
2018-12-29T09:52:01.564Z,25.43
2018-12-29T09:57:03.533Z,25.68
2018-12-29T10:02:05.884Z,24.85
2018-12-29T10:07:07.944Z,24.37
2018-12-29T10:12:09.967Z,26.85
2018-12-29T10:17:12.103Z,26.50
2018-12-29T10:22:14.172Z,26.62
2018-12-29T10:27:16.286Z,25.15
2018-12-29T10:32:18.313Z,26.10
2018-12-29T10:37:20.424Z,27.95
2018-12-29T10:42:22.615Z,25.65
2018-12-29T10:47:24.694Z,27.60
2018-12-29T10:52:26.746Z,25.72
2018-12-29T10:57:28.742Z,25.52
2018-12-29T11:02:30.781Z,26.90
2018-12-29T11:07:32.803Z,26.00
2018-12-29T11:12:34.852Z,25.40
2018-12-29T11:17:42.150Z,25.10
2018-12-29T11:22:41.235Z,24.25
2018-12-29T11:27:43.359Z,24.23
2018-12-29T11:32:45.786Z,26.93
2018-12-29T11:37:47.967Z,26.42
2018-12-29T11:42:50.077Z,24.60
2018-12-29T11:47:52.131Z,25.62
2018-12-29T11:52:54.332Z,24.92
2018-12-29T11:57:56.405Z,27.15
2018-12-29T12:03:00.665Z,26.17
2018-12-29T12:08:04.967Z,25.92
2018-12-29T12:13:06.983Z,26.35
2018-12-29T12:18:09.015Z,27.25
2018-12-29T12:23:11.517Z,28.02
2018-12-29T12:28:13.527Z,25.65
2018-12-29T12:33:15.518Z,26.93
2018-12-29T12:38:17.585Z,25.92
2018-12-29T12:43:19.675Z,26.85
2018-12-29T12:48:22.541Z,24.47
2018-12-29T12:53:26.087Z,25.45
2018-12-29T12:58:28.120Z,24.43
2018-12-29T13:03:30.658Z,26.10
2018-12-29T13:08:37.375Z,24.98
2018-12-29T13:13:39.408Z,25.23
2018-12-29T13:18:41.412Z,26.15
2018-12-29T13:23:43.528Z,24.60
2018-12-29T13:28:45.990Z,25.40
2018-12-29T13:33:48.004Z,24.87
2018-12-29T13:38:50.091Z,26.62
2018-12-29T13:43:52.239Z,26.10
2018-12-29T13:48:54.681Z,27.37
2018-12-29T13:53:56.768Z,26.82
2018-12-29T13:58:59.151Z,26.77
2018-12-29T14:04:01.157Z,28.32
2018-12-29T14:09:04.389Z,27.80
2018-12-29T14:14:06.402Z,27.73
2018-12-29T14:19:08.451Z,25.95
2018-12-29T14:24:10.483Z,25.37
2018-12-29T14:29:12.496Z,26.37
2018-12-29T14:34:14.535Z,26.50
2018-12-29T14:39:16.590Z,26.30
2018-12-29T14:44:18.862Z,28.50
2018-12-29T14:49:20.923Z,28.38
2018-12-29T14:54:22.976Z,28.55
2018-12-29T14:59:25.070Z,29.80
2018-12-29T15:04:27.644Z,27.95
2018-12-29T15:09:29.656Z,29.92
2018-12-29T15:14:32.022Z,27.05
2018-12-29T15:19:34.044Z,28.62
2018-12-29T15:24:36.251Z,27.62
2018-12-29T15:29:38.385Z,27.98
2018-12-29T15:34:42.039Z,28.38
2018-12-29T15:39:44.082Z,27.75
2018-12-29T15:44:46.119Z,28.70
2018-12-29T15:49:48.107Z,27.10
2018-12-29T15:54:50.177Z,28.42
2018-12-29T15:59:52.267Z,28.15
2018-12-29T16:04:54.329Z,26.45
2018-12-29T16:09:56.356Z,28.62
2018-12-29T16:14:58.337Z,28.80
2018-12-29T16:20:00.458Z,27.25
2018-12-29T16:25:02.736Z,28.47
2018-12-29T16:30:04.940Z,27.65
2018-12-29T16:35:06.997Z,26.87
2018-12-29T16:40:09.041Z,26.82
2018-12-29T16:45:11.165Z,26.68
2018-12-29T16:50:13.241Z,27.93
2018-12-29T16:55:15.272Z,26.25
2018-12-29T17:00:17.317Z,25.82
2018-12-29T17:05:19.355Z,24.80
2018-12-29T17:10:21.508Z,24.30
2018-12-29T17:15:23.576Z,25.15
2018-12-29T17:20:25.580Z,26.93
2018-12-29T17:25:28.046Z,25.70
2018-12-29T17:30:30.520Z,26.02
2018-12-29T17:35:32.708Z,26.57
2018-12-29T17:40:34.646Z,26.00
2018-12-29T17:45:36.704Z,23.83
2018-12-29T17:50:38.811Z,23.75
2018-12-29T17:55:40.824Z,25.68
2018-12-29T18:00:43.020Z,23.92
2018-12-29T18:05:45.155Z,23.45
2018-12-29T18:10:47.214Z,22.90
2018-12-29T18:15:49.212Z,26.37
2018-12-29T18:20:51.279Z,24.37
2018-12-29T18:25:53.292Z,24.72
2018-12-29T18:30:55.527Z,24.35
2018-12-29T18:35:57.604Z,24.72
2018-12-29T18:40:59.620Z,24.35
2018-12-29T18:46:01.695Z,24.63
2018-12-29T18:51:03.818Z,23.07
2018-12-29T18:56:05.853Z,23.30
2018-12-29T19:01:07.924Z,22.65
2018-12-29T19:06:11.130Z,21.50
2018-12-29T19:11:13.555Z,23.67
2018-12-29T19:16:15.906Z,22.58
2018-12-29T19:21:17.928Z,22.25
2018-12-29T19:26:22.001Z,22.55
2018-12-29T19:31:24.203Z,22.95
2018-12-29T19:36:26.255Z,21.80
2018-12-29T19:41:28.263Z,22.87
2018-12-29T19:46:30.758Z,22.13
2018-12-29T19:51:32.813Z,23.22
2018-12-29T19:56:34.815Z,22.35
2018-12-29T20:01:37.127Z,26.20
2018-12-29T20:06:39.687Z,23.27
2018-12-29T20:11:41.655Z,23.83
2018-12-29T20:21:44.243Z,20.77
2018-12-29T20:26:46.218Z,22.98
2018-12-29T20:31:48.612Z,21.97
2018-12-29T20:36:50.686Z,19.35
2018-12-29T20:41:53.110Z,23.18
2018-12-29T20:46:56.979Z,21.68
2018-12-29T20:51:59.136Z,22.17
2018-12-29T20:57:01.225Z,20.48
2018-12-29T21:02:03.540Z,20.35
2018-12-29T21:07:05.874Z,18.82
2018-12-29T21:12:07.851Z,18.05
2018-12-29T21:17:09.871Z,19.05
2018-12-29T21:22:12.000Z,19.37
2018-12-29T21:27:14.170Z,16.70
2018-12-29T21:32:16.243Z,19.35
2018-12-29T21:37:18.976Z,18.90
2018-12-29T21:42:22.238Z,18.55
2018-12-29T21:47:27.112Z,16.73
2018-12-29T21:52:29.221Z,15.70
2018-12-29T21:57:31.223Z,14.20
2018-12-29T22:02:33.235Z,17.32
2018-12-29T22:07:35.447Z,12.25
2018-12-29T22:12:37.849Z,11.20
2018-12-29T22:17:40.253Z,9.58
2018-12-29T22:22:42.617Z,11.03
2018-12-29T22:27:44.890Z,10.25
2018-12-29T22:32:46.932Z,9.58
2018-12-29T22:37:49.237Z,9.18
2018-12-29T22:42:51.323Z,10.78
2018-12-29T22:47:53.388Z,10.20
2018-12-29T22:52:55.359Z,9.83
2018-12-29T22:57:57.508Z,10.03
2018-12-29T23:02:59.539Z,9.23
2018-12-29T23:08:01.628Z,8.98
2018-12-29T23:13:03.637Z,9.05
2018-12-29T23:18:05.824Z,8.43
2018-12-29T23:23:08.221Z,8.43
2018-12-29T23:28:10.289Z,8.45
2018-12-29T23:33:12.750Z,9.58
2018-12-29T23:38:14.791Z,10.30
2018-12-29T23:43:17.074Z,8.98
2018-12-29T23:48:19.117Z,11.05
2018-12-29T23:53:21.217Z,10.40
2018-12-29T23:58:23.777Z,10.05
